Historyczne dane pomiarowe

Dodano dane terminowe – wersja testowa.

Dane z okresu 1951-2019

Wersja bazy: 1.34 [2019-03-16, lista zmian], aktualizacja planowana na 2019-04-15

Dane meteo z obszaru Polski uzyskane na podstawie danych udostępnionych przez Instytut Meteorologii i Gospodarki Wodnej – Państwowy Instytut Badawczy.

 

Wybierz Datę:    

       

TemperaturaWilgotnośćWiatrCiśnienieOpadyŚniegCzas trwania zjawisk
 Stacja t tx tn tng RH VA  wxwx mslp ppp RRR   cm mm wxwxwxwxwxwxwx
1999-08-14 12.8 19.7 5.7- 69.3- 3.7 0.7---- 1.9------------
1999-08-13 10.6 13.9 8.3- 81.8- 5.7 0.0---- 0.1------------
1999-08-12 12.0 15.6 9.5- 76.0- 7.3 0.3---- 0.0------------
1999-08-11 14.5 18.1 12.1- 81.8- 6.3 1.7---- 4.7------------
1999-08-10 16.1 20.2 13.8- 94.8- 7.3 0.7---- 3.8------------
1999-08-09 19.1 24.1 15.0- 74.5- 4.7 1.7---- 1.2------------
1999-08-08 18.8 26.6 13.4- 77.3- 3.3 0.0---- 0.0------------
1999-08-07 18.6 26.3 12.8- 75.3- 6.0 0.7---- 0.0------------
1999-08-06 20.3 24.4 16.3- 73.8- 4.3 0.7---- 0.0------------
1999-08-05 16.3 23.9 8.3- 68.0- 6.3 1.0---- 0.0------------
1999-08-04 17.7 23.9 12.0- 71.3- 1.7 0.0---- 0.0------------
1999-08-03 15.4 23.2 9.1- 71.3- 1.7 1.3---- 0.0------------
1999-08-02 13.7 22.3 9.8- 70.8- 2.3 0.0---- 0.0------------
1999-08-01 15.9 22.4 9.7- 68.5- 1.0 0.0---- 0.0------------
1999-07-31 16.4 22.5 9.9- 61.8- 1.7 0.0---- 0.0------------
1999-07-30 16.3 21.4 8.8- 66.5- 2.3 0.0---- 0.0------------
1999-07-29 15.3 20.7 9.0- 77.5- 6.0 1.0---- 0.0------------
1999-07-28 14.0 20.0 7.3- 73.8- 1.7 1.3---- 0.0------------
1999-07-27 14.4 19.4 11.6- 93.5- 7.7 0.0---- 0.2------------
1999-07-26 18.3 24.4 12.3- 73.3- 4.3 1.0---- 0.2------------
1999-07-25 16.8 21.9 11.7- 77.0- 4.7 0.0---- 0.0------------
1999-07-24 12.5 17.1 9.8- 78.8- 6.7 0.0---- 0.0------------
1999-07-23 13.5 16.4 9.7- 70.8- 7.7 0.0---- 0.0------------
1999-07-22 14.5 18.5 10.7- 75.8- 2.3 0.0---- 0.0------------
1999-07-21 20.0 24.6 16.2- 72.5- 3.3 0.0---- 1.8------------
1999-07-20 21.7 27.1 16.6- 63.0- 2.0 1.0---- 0.0------------
1999-07-19 21.8 26.7 17.8- 51.5- 2.3 1.0---- 0.0------------
1999-07-18 17.8 24.4 10.6- 73.5- 2.3 0.0---- 0.0------------
1999-07-17 14.3 21.4 8.1- 71.0- 1.3 0.0---- 0.0------------
1999-07-16 13.8 19.0 9.0- 73.5- 4.3 0.3---- 0.0------------
1999-07-15 12.7 16.1 9.7- 84.5- 6.3 1.0---- 0.0------------
1999-07-14 16.7 20.6 14.2- 83.0- 4.7 0.7---- 11.6------------
1999-07-13 19.1 23.3 15.5- 85.0- 6.3 0.0---- 3.8------------
1999-07-12 18.0 22.9 13.0- 91.3- 6.3 0.0---- 3.7------------
1999-07-11 15.9 19.7 13.3- 90.8- 8.0 1.0---- 0.4------------
1999-07-10 16.9 19.9 14.7- 89.5- 7.0 0.0---- 0.0------------
1999-07-09 13.7 15.3 11.4- 97.0- 8.0 0.0---- 12.8------------
1999-07-08 12.7 14.4 11.8- 97.8- 8.0 0.7---- 13.2------------
1999-07-07 14.2 17.5 12.6- 98.3- 8.0 0.0---- 2.8------------
1999-07-06 19.5 25.8 15.8- 88.5- 8.0 0.0---- 56.0------------
1999-07-05 23.5 27.9 17.3- 60.8- 3.7 4.3---- 8.3------------
1999-07-04 24.3 29.7 19.0- 63.3- 1.0 0.0---- 0.0------------
1999-07-03 18.9 26.4 9.9- 72.3- 4.0 0.0---- 0.0------------
1999-07-02 16.3 19.7 13.4- 87.0- 6.7 0.3---- 2.4------------
1999-07-01 16.6 20.2 12.4- 85.8- 5.7 1.3---- 0.0------------
1999-06-30 17.5 24.2 10.6- 78.0- 5.7 0.0---- 0.4------------
1999-06-29 15.8 21.6 8.8- 68.3- 2.3 0.0---- 0.0------------
1999-06-28 17.1 24.2 11.1- 79.3- 4.3 1.3---- 0.1------------
1999-06-27 16.1 21.0 11.7- 84.0- 8.0 0.0---- 0.2------------
1999-06-26 13.9 21.3 4.3- 73.0- 3.3 0.0---- 0.0------------
1999-06-25 12.0 15.5 10.1- 89.0- 7.3 0.0---- 0.8------------
1999-06-24 10.0 15.4 6.6- 89.5- 7.3 0.0---- 0.0------------
1999-06-23 8.8 13.3 6.8- 88.3- 4.7 1.7---- 0.0------------
1999-06-22 7.6 9.8 6.3- 96.0- 8.0 1.3---- 10.3------------
1999-06-21 12.6 18.9 9.3- 95.5- 8.0 0.0---- 12.4------------
1999-06-20 14.3 18.9 8.1- 82.0- 2.0 0.3---- 0.0------------
1999-06-19 12.5 16.4 9.2- 97.0- 6.3 0.0---- 0.0------------
1999-06-18 11.1 14.9 9.4- 98.5- 8.0 1.3---- 19.5------------
1999-06-17 14.8 18.6 12.8- 95.3- 6.3 0.0---- 0.0------------
1999-06-16 13.8 16.0 12.2- 97.5- 8.0 0.0---- 2.2------------
255.1 ms

 

Źródłem pochodzenia danych jest Instytut Meteorologii i Gospodarki Wodnej – Państwowy Instytut Badawczy. Dane Instytutu Meteorologii i Gospodarki Wodnej – Państwowego Instytutu Badawczego zostały przetworzone.

Dane źródłowe można odnaleźć na stronie https://dane.imgw.pl